sensor_id;sensor_type;location;lat;lon;timestamp;temperature;humidity
10788;DHT22;5446;50.826;4.380;2022-09-13T00:00:34;19.40;99.90
10788;DHT22;5446;50.826;4.380;2022-09-13T00:03:00;19.50;99.90
10788;DHT22;5446;50.826;4.380;2022-09-13T00:05:26;19.50;99.90
10788;DHT22;5446;50.826;4.380;2022-09-13T00:07:53;19.50;99.90
10788;DHT22;5446;50.826;4.380;2022-09-13T00:10:19;19.50;99.90
10788;DHT22;5446;50.826;4.380;2022-09-13T00:12:47;19.50;99.90
10788;DHT22;5446;50.826;4.380;2022-09-13T00:15:13;19.50;99.90
10788;DHT22;5446;50.826;4.380;2022-09-13T00:17:39;19.40;99.90
10788;DHT22;5446;50.826;4.380;2022-09-13T00:20:05;19.40;99.90
10788;DHT22;5446;50.826;4.380;2022-09-13T00:22:31;19.40;99.90
10788;DHT22;5446;50.826;4.380;2022-09-13T00:24:57;19.50;99.90
10788;DHT22;5446;50.826;4.380;2022-09-13T00:27:22;19.50;99.90
10788;DHT22;5446;50.826;4.380;2022-09-13T00:29:48;19.50;99.90
10788;DHT22;5446;50.826;4.380;2022-09-13T00:32:14;19.50;99.90
10788;DHT22;5446;50.826;4.380;2022-09-13T00:34:39;19.50;99.90
10788;DHT22;5446;50.826;4.380;2022-09-13T00:37:05;19.50;99.90
10788;DHT22;5446;50.826;4.380;2022-09-13T00:39:31;19.60;99.90
10788;DHT22;5446;50.826;4.380;2022-09-13T00:41:57;19.60;99.90
10788;DHT22;5446;50.826;4.380;2022-09-13T00:44:55;19.60;99.90
10788;DHT22;5446;50.826;4.380;2022-09-13T00:50:09;19.60;99.90
10788;DHT22;5446;50.826;4.380;2022-09-13T00:52:37;19.60;99.90
10788;DHT22;5446;50.826;4.380;2022-09-13T00:55:18;19.70;99.90
10788;DHT22;5446;50.826;4.380;2022-09-13T00:57:45;19.60;99.90
10788;DHT22;5446;50.826;4.380;2022-09-13T01:00:13;19.60;99.90
10788;DHT22;5446;50.826;4.380;2022-09-13T01:02:48;19.60;99.90
10788;DHT22;5446;50.826;4.380;2022-09-13T01:05:17;19.60;99.90
10788;DHT22;5446;50.826;4.380;2022-09-13T01:07:45;19.50;99.90
10788;DHT22;5446;50.826;4.380;2022-09-13T01:10:11;19.50;99.90
10788;DHT22;5446;50.826;4.380;2022-09-13T01:12:54;19.50;99.90
10788;DHT22;5446;50.826;4.380;2022-09-13T01:15:20;19.50;99.90
10788;DHT22;5446;50.826;4.380;2022-09-13T01:17:47;19.50;99.90
10788;DHT22;5446;50.826;4.380;2022-09-13T01:20:14;19.50;99.90
10788;DHT22;5446;50.826;4.380;2022-09-13T01:23:25;19.50;99.90
10788;DHT22;5446;50.826;4.380;2022-09-13T01:34:38;19.40;99.90
10788;DHT22;5446;50.826;4.380;2022-09-13T01:43:30;19.20;99.90
10788;DHT22;5446;50.826;4.380;2022-09-13T01:46:10;19.30;99.90
10788;DHT22;5446;50.826;4.380;2022-09-13T01:51:27;19.30;99.90
10788;DHT22;5446;50.826;4.380;2022-09-13T01:57:19;19.30;99.90
10788;DHT22;5446;50.826;4.380;2022-09-13T01:59:54;19.40;99.90
10788;DHT22;5446;50.826;4.380;2022-09-13T02:04:57;19.40;99.90
10788;DHT22;5446;50.826;4.380;2022-09-13T02:07:39;19.40;99.90
10788;DHT22;5446;50.826;4.380;2022-09-13T02:10:25;19.40;99.90
10788;DHT22;5446;50.826;4.380;2022-09-13T02:12:55;19.50;99.90
10788;DHT22;5446;50.826;4.380;2022-09-13T02:15:26;19.50;99.90
10788;DHT22;5446;50.826;4.380;2022-09-13T02:18:08;19.50;99.90
10788;DHT22;5446;50.826;4.380;2022-09-13T02:20:41;19.50;99.90
10788;DHT22;5446;50.826;4.380;2022-09-13T02:23:46;19.60;99.90
10788;DHT22;5446;50.826;4.380;2022-09-13T02:26:05;19.60;99.90
10788;DHT22;5446;50.826;4.380;2022-09-13T02:28:45;19.60;99.90
10788;DHT22;5446;50.826;4.380;2022-09-13T02:31:17;19.60;99.90
10788;DHT22;5446;50.826;4.380;2022-09-13T02:33:48;19.60;99.90
10788;DHT22;5446;50.826;4.380;2022-09-13T02:36:20;19.60;99.90
10788;DHT22;5446;50.826;4.380;2022-09-13T02:38:59;19.60;99.90
10788;DHT22;5446;50.826;4.380;2022-09-13T02:41:42;19.60;99.90
10788;DHT22;5446;50.826;4.380;2022-09-13T02:44:24;19.60;99.90
10788;DHT22;5446;50.826;4.380;2022-09-13T02:47:02;19.70;99.90
10788;DHT22;5446;50.826;4.380;2022-09-13T02:52:49;19.70;99.90
10788;DHT22;5446;50.826;4.380;2022-09-13T02:55:24;19.70;99.90
10788;DHT22;5446;50.826;4.380;2022-09-13T03:00:19;19.70;99.90
10788;DHT22;5446;50.826;4.380;2022-09-13T03:02:46;19.80;99.90
10788;DHT22;5446;50.826;4.380;2022-09-13T03:05:13;19.70;99.90
10788;DHT22;5446;50.826;4.380;2022-09-13T03:07:39;19.70;99.90
10788;DHT22;5446;50.826;4.380;2022-09-13T03:10:07;19.70;99.90
10788;DHT22;5446;50.826;4.380;2022-09-13T03:13:02;19.70;99.90
10788;DHT22;5446;50.826;4.380;2022-09-13T03:24:34;19.50;99.90
10788;DHT22;5446;50.826;4.380;2022-09-13T03:28:16;19.50;99.90
10788;DHT22;5446;50.826;4.380;2022-09-13T03:30:13;19.50;99.90
10788;DHT22;5446;50.826;4.380;2022-09-13T03:35:42;19.40;99.90
10788;DHT22;5446;50.826;4.380;2022-09-13T03:38:25;19.40;99.90
10788;DHT22;5446;50.826;4.380;2022-09-13T03:41:04;19.40;99.90
10788;DHT22;5446;50.826;4.380;2022-09-13T03:43:44;19.40;99.90
10788;DHT22;5446;50.826;4.380;2022-09-13T03:46:16;19.30;99.90
10788;DHT22;5446;50.826;4.380;2022-09-13T03:48:44;19.40;99.90
10788;DHT22;5446;50.826;4.380;2022-09-13T03:51:10;19.40;99.90
10788;DHT22;5446;50.826;4.380;2022-09-13T03:53:42;19.40;99.90
10788;DHT22;5446;50.826;4.380;2022-09-13T03:56:14;19.40;99.90
10788;DHT22;5446;50.826;4.380;2022-09-13T03:58:40;19.40;99.90
10788;DHT22;5446;50.826;4.380;2022-09-13T04:01:06;19.40;99.90
10788;DHT22;5446;50.826;4.380;2022-09-13T04:03:32;19.40;99.90
10788;DHT22;5446;50.826;4.380;2022-09-13T04:05:58;19.40;99.90
10788;DHT22;5446;50.826;4.380;2022-09-13T04:08:23;19.30;99.90
10788;DHT22;5446;50.826;4.380;2022-09-13T04:10:49;19.20;99.90
10788;DHT22;5446;50.826;4.380;2022-09-13T04:13:16;19.20;99.90
10788;DHT22;5446;50.826;4.380;2022-09-13T04:15:42;19.10;99.90
10788;DHT22;5446;50.826;4.380;2022-09-13T04:18:08;19.10;99.90
10788;DHT22;5446;50.826;4.380;2022-09-13T04:20:34;19.00;99.90
10788;DHT22;5446;50.826;4.380;2022-09-13T04:23:00;19.00;99.90
10788;DHT22;5446;50.826;4.380;2022-09-13T04:25:26;19.00;99.90
10788;DHT22;5446;50.826;4.380;2022-09-13T04:27:56;19.00;99.90
10788;DHT22;5446;50.826;4.380;2022-09-13T04:30:24;19.10;99.90
10788;DHT22;5446;50.826;4.380;2022-09-13T04:32:50;19.00;99.90
10788;DHT22;5446;50.826;4.380;2022-09-13T04:35:16;19.00;99.90
10788;DHT22;5446;50.826;4.380;2022-09-13T04:37:44;19.00;99.90
10788;DHT22;5446;50.826;4.380;2022-09-13T04:40:10;19.00;99.90
10788;DHT22;5446;50.826;4.380;2022-09-13T04:42:36;19.00;99.90
10788;DHT22;5446;50.826;4.380;2022-09-13T04:45:03;19.00;99.90
10788;DHT22;5446;50.826;4.380;2022-09-13T04:47:28;19.00;99.90
10788;DHT22;5446;50.826;4.380;2022-09-13T04:49:55;19.10;99.90
10788;DHT22;5446;50.826;4.380;2022-09-13T04:52:21;19.00;99.90
10788;DHT22;5446;50.826;4.380;2022-09-13T04:54:47;19.10;99.90
10788;DHT22;5446;50.826;4.380;2022-09-13T04:57:15;19.10;99.90
10788;DHT22;5446;50.826;4.380;2022-09-13T04:59:41;19.10;99.90
10788;DHT22;5446;50.826;4.380;2022-09-13T05:02:08;19.00;99.90
10788;DHT22;5446;50.826;4.380;2022-09-13T05:04:33;19.00;99.90
10788;DHT22;5446;50.826;4.380;2022-09-13T05:06:59;19.00;99.90
10788;DHT22;5446;50.826;4.380;2022-09-13T05:09:25;19.00;99.90
10788;DHT22;5446;50.826;4.380;2022-09-13T05:11:50;19.00;99.90
10788;DHT22;5446;50.826;4.380;2022-09-13T05:14:16;19.10;99.90
10788;DHT22;5446;50.826;4.380;2022-09-13T05:16:42;19.10;99.90
10788;DHT22;5446;50.826;4.380;2022-09-13T05:19:09;19.10;99.90
10788;DHT22;5446;50.826;4.380;2022-09-13T05:21:35;19.10;99.90
10788;DHT22;5446;50.826;4.380;2022-09-13T05:24:01;19.20;99.90
10788;DHT22;5446;50.826;4.380;2022-09-13T05:26:28;19.20;99.90
10788;DHT22;5446;50.826;4.380;2022-09-13T05:28:59;19.20;99.90
10788;DHT22;5446;50.826;4.380;2022-09-13T05:31:33;19.20;99.90
10788;DHT22;5446;50.826;4.380;2022-09-13T05:34:02;19.20;99.90
10788;DHT22;5446;50.826;4.380;2022-09-13T05:36:27;19.20;99.90
10788;DHT22;5446;50.826;4.380;2022-09-13T05:38:54;19.10;99.90
10788;DHT22;5446;50.826;4.380;2022-09-13T05:41:20;19.10;99.90
10788;DHT22;5446;50.826;4.380;2022-09-13T05:43:46;19.10;99.90
10788;DHT22;5446;50.826;4.380;2022-09-13T05:46:21;19.00;99.90
10788;DHT22;5446;50.826;4.380;2022-09-13T05:48:47;19.10;99.90
10788;DHT22;5446;50.826;4.380;2022-09-13T05:51:21;19.10;99.90
10788;DHT22;5446;50.826;4.380;2022-09-13T05:53:49;19.10;99.90
10788;DHT22;5446;50.826;4.380;2022-09-13T05:56:20;19.10;99.90
10788;DHT22;5446;50.826;4.380;2022-09-13T05:58:47;19.10;99.90
10788;DHT22;5446;50.826;4.380;2022-09-13T06:01:16;19.10;99.90
10788;DHT22;5446;50.826;4.380;2022-09-13T06:03:42;19.10;99.90
10788;DHT22;5446;50.826;4.380;2022-09-13T06:06:09;19.10;99.90
10788;DHT22;5446;50.826;4.380;2022-09-13T06:08:35;19.10;99.90
10788;DHT22;5446;50.826;4.380;2022-09-13T06:11:06;19.10;99.90
10788;DHT22;5446;50.826;4.380;2022-09-13T06:13:33;19.20;99.90
10788;DHT22;5446;50.826;4.380;2022-09-13T06:16:00;19.20;99.90
10788;DHT22;5446;50.826;4.380;2022-09-13T06:18:27;19.30;99.90
10788;DHT22;5446;50.826;4.380;2022-09-13T06:21:04;19.40;99.90
10788;DHT22;5446;50.826;4.380;2022-09-13T06:23:30;19.40;99.90
10788;DHT22;5446;50.826;4.380;2022-09-13T06:26:04;19.50;99.90
10788;DHT22;5446;50.826;4.380;2022-09-13T06:28:30;19.50;99.90
10788;DHT22;5446;50.826;4.380;2022-09-13T06:31:03;19.50;99.90
10788;DHT22;5446;50.826;4.380;2022-09-13T06:33:30;19.60;99.90
10788;DHT22;5446;50.826;4.380;2022-09-13T06:36:00;19.60;99.90
10788;DHT22;5446;50.826;4.380;2022-09-13T06:38:27;19.60;99.90
10788;DHT22;5446;50.826;4.380;2022-09-13T06:43:29;19.70;99.90
10788;DHT22;5446;50.826;4.380;2022-09-13T06:45:59;19.80;99.90
10788;DHT22;5446;50.826;4.380;2022-09-13T06:48:24;19.80;99.90
10788;DHT22;5446;50.826;4.380;2022-09-13T06:50:50;19.80;99.90
10788;DHT22;5446;50.826;4.380;2022-09-13T06:53:16;19.90;99.90
10788;DHT22;5446;50.826;4.380;2022-09-13T06:55:41;19.90;99.90
10788;DHT22;5446;50.826;4.380;2022-09-13T06:58:07;19.90;99.90
10788;DHT22;5446;50.826;4.380;2022-09-13T07:00:32;19.90;99.90
10788;DHT22;5446;50.826;4.380;2022-09-13T07:02:58;20.00;99.90
10788;DHT22;5446;50.826;4.380;2022-09-13T07:05:24;20.10;99.90
10788;DHT22;5446;50.826;4.380;2022-09-13T07:07:49;20.10;99.90
10788;DHT22;5446;50.826;4.380;2022-09-13T07:10:15;20.10;99.90
10788;DHT22;5446;50.826;4.380;2022-09-13T07:12:41;20.30;99.90
10788;DHT22;5446;50.826;4.380;2022-09-13T07:15:07;20.40;99.90
10788;DHT22;5446;50.826;4.380;2022-09-13T07:17:33;20.50;99.90
10788;DHT22;5446;50.826;4.380;2022-09-13T07:19:59;20.60;99.90
10788;DHT22;5446;50.826;4.380;2022-09-13T07:22:24;20.50;99.90
10788;DHT22;5446;50.826;4.380;2022-09-13T07:24:52;20.60;99.90
10788;DHT22;5446;50.826;4.380;2022-09-13T07:27:19;20.70;99.90
10788;DHT22;5446;50.826;4.380;2022-09-13T07:29:44;20.70;99.90
10788;DHT22;5446;50.826;4.380;2022-09-13T07:32:10;20.80;99.90
10788;DHT22;5446;50.826;4.380;2022-09-13T07:34:35;20.80;99.90
10788;DHT22;5446;50.826;4.380;2022-09-13T07:37:01;20.90;99.90
10788;DHT22;5446;50.826;4.380;2022-09-13T07:39:27;20.90;99.90
10788;DHT22;5446;50.826;4.380;2022-09-13T07:41:52;21.00;99.90
10788;DHT22;5446;50.826;4.380;2022-09-13T07:44:18;21.00;99.90
10788;DHT22;5446;50.826;4.380;2022-09-13T07:46:44;21.10;99.90
10788;DHT22;5446;50.826;4.380;2022-09-13T07:49:11;21.10;99.90
10788;DHT22;5446;50.826;4.380;2022-09-13T07:51:40;21.10;99.90
10788;DHT22;5446;50.826;4.380;2022-09-13T07:54:10;21.10;99.90
10788;DHT22;5446;50.826;4.380;2022-09-13T07:56:37;21.10;99.90
10788;DHT22;5446;50.826;4.380;2022-09-13T07:59:06;21.10;99.90
10788;DHT22;5446;50.826;4.380;2022-09-13T08:01:37;21.10;99.90
10788;DHT22;5446;50.826;4.380;2022-09-13T08:04:06;21.00;99.90
10788;DHT22;5446;50.826;4.380;2022-09-13T08:06:34;21.00;99.90
10788;DHT22;5446;50.826;4.380;2022-09-13T08:09:00;21.00;99.90
10788;DHT22;5446;50.826;4.380;2022-09-13T08:11:38;21.00;99.90
10788;DHT22;5446;50.826;4.380;2022-09-13T08:14:06;21.10;99.90
10788;DHT22;5446;50.826;4.380;2022-09-13T08:16:33;21.20;99.90
10788;DHT22;5446;50.826;4.380;2022-09-13T08:19:01;21.20;99.90
10788;DHT22;5446;50.826;4.380;2022-09-13T08:21:37;21.20;99.90
10788;DHT22;5446;50.826;4.380;2022-09-13T08:24:04;21.20;99.90
10788;DHT22;5446;50.826;4.380;2022-09-13T08:26:32;21.20;99.90
10788;DHT22;5446;50.826;4.380;2022-09-13T08:28:59;21.30;99.90
10788;DHT22;5446;50.826;4.380;2022-09-13T08:31:26;21.40;99.90
10788;DHT22;5446;50.826;4.380;2022-09-13T08:33:52;21.50;99.90
10788;DHT22;5446;50.826;4.380;2022-09-13T08:36:18;21.60;99.90
10788;DHT22;5446;50.826;4.380;2022-09-13T08:38:51;21.60;99.90
10788;DHT22;5446;50.826;4.380;2022-09-13T08:47:02;21.60;99.90
10788;DHT22;5446;50.826;4.380;2022-09-13T08:49:29;21.70;99.90
10788;DHT22;5446;50.826;4.380;2022-09-13T08:54:39;22.00;99.90
10788;DHT22;5446;50.826;4.380;2022-09-13T08:57:22;22.10;99.90
10788;DHT22;5446;50.826;4.380;2022-09-13T09:00:05;22.10;99.90
10788;DHT22;5446;50.826;4.380;2022-09-13T09:05:18;22.40;99.90
10788;DHT22;5446;50.826;4.380;2022-09-13T09:07:48;22.50;99.90
10788;DHT22;5446;50.826;4.380;2022-09-13T09:10:26;22.40;99.90
10788;DHT22;5446;50.826;4.380;2022-09-13T09:15:26;22.70;99.90
10788;DHT22;5446;50.826;4.380;2022-09-13T09:18:05;22.70;99.90
10788;DHT22;5446;50.826;4.380;2022-09-13T09:20:49;22.80;99.90
10788;DHT22;5446;50.826;4.380;2022-09-13T09:23:37;22.90;99.90
10788;DHT22;5446;50.826;4.380;2022-09-13T09:26:24;23.10;99.90
10788;DHT22;5446;50.826;4.380;2022-09-13T09:29:20;23.20;99.90
10788;DHT22;5446;50.826;4.380;2022-09-13T09:35:22;23.20;99.90
10788;DHT22;5446;50.826;4.380;2022-09-13T09:38:25;23.40;99.90
10788;DHT22;5446;50.826;4.380;2022-09-13T09:40:56;23.40;99.90
10788;DHT22;5446;50.826;4.380;2022-09-13T09:43:29;23.50;99.90
10788;DHT22;5446;50.826;4.380;2022-09-13T09:45:58;23.70;99.90
10788;DHT22;5446;50.826;4.380;2022-09-13T09:48:30;23.70;99.90
10788;DHT22;5446;50.826;4.380;2022-09-13T09:51:01;23.60;99.90
10788;DHT22;5446;50.826;4.380;2022-09-13T09:53:49;23.50;99.90
10788;DHT22;5446;50.826;4.380;2022-09-13T09:56:27;23.50;99.90
10788;DHT22;5446;50.826;4.380;2022-09-13T09:58:53;23.60;99.90
10788;DHT22;5446;50.826;4.380;2022-09-13T10:03:53;23.90;99.90
10788;DHT22;5446;50.826;4.380;2022-09-13T10:06:24;23.90;99.90
10788;DHT22;5446;50.826;4.380;2022-09-13T10:09:01;23.90;99.90
10788;DHT22;5446;50.826;4.380;2022-09-13T10:11:44;23.90;99.90
10788;DHT22;5446;50.826;4.380;2022-09-13T10:17:02;24.00;99.90
10788;DHT22;5446;50.826;4.380;2022-09-13T10:19:30;24.10;99.90
10788;DHT22;5446;50.826;4.380;2022-09-13T10:22:04;24.00;99.90
10788;DHT22;5446;50.826;4.380;2022-09-13T10:24:31;24.00;99.90
10788;DHT22;5446;50.826;4.380;2022-09-13T10:26:57;24.00;99.90
10788;DHT22;5446;50.826;4.380;2022-09-13T10:29:26;24.10;99.90
10788;DHT22;5446;50.826;4.380;2022-09-13T10:31:53;24.10;99.90
10788;DHT22;5446;50.826;4.380;2022-09-13T10:37:02;24.30;99.90
10788;DHT22;5446;50.826;4.380;2022-09-13T10:39:31;24.20;99.90
10788;DHT22;5446;50.826;4.380;2022-09-13T10:47:43;24.20;99.90
10788;DHT22;5446;50.826;4.380;2022-09-13T10:50:28;24.20;99.90
10788;DHT22;5446;50.826;4.380;2022-09-13T10:52:57;24.30;99.90
10788;DHT22;5446;50.826;4.380;2022-09-13T10:55:35;24.30;99.90
10788;DHT22;5446;50.826;4.380;2022-09-13T11:06:10;24.50;99.90
10788;DHT22;5446;50.826;4.380;2022-09-13T11:22:48;24.70;99.90
10788;DHT22;5446;50.826;4.380;2022-09-13T11:30:41;24.80;99.90
10788;DHT22;5446;50.826;4.380;2022-09-13T11:35:55;24.60;99.90
10788;DHT22;5446;50.826;4.380;2022-09-13T11:41:33;24.70;99.90
10788;DHT22;5446;50.826;4.380;2022-09-13T11:47:09;24.70;99.90
10788;DHT22;5446;50.826;4.380;2022-09-13T11:55:31;24.60;99.90
10788;DHT22;5446;50.826;4.380;2022-09-13T11:58:04;24.60;99.90
10788;DHT22;5446;50.826;4.380;2022-09-13T12:00:59;24.70;99.90
10788;DHT22;5446;50.826;4.380;2022-09-13T12:04:04;24.70;99.90
10788;DHT22;5446;50.826;4.380;2022-09-13T12:06:24;24.70;99.90
10788;DHT22;5446;50.826;4.380;2022-09-13T12:09:17;24.70;99.90
10788;DHT22;5446;50.826;4.380;2022-09-13T12:11:45;24.70;99.90
10788;DHT22;5446;50.826;4.380;2022-09-13T12:14:20;24.70;99.90
10788;DHT22;5446;50.826;4.380;2022-09-13T12:16:50;24.50;99.90
10788;DHT22;5446;50.826;4.380;2022-09-13T12:21:43;24.50;99.90
10788;DHT22;5446;50.826;4.380;2022-09-13T12:24:20;24.40;99.90
10788;DHT22;5446;50.826;4.380;2022-09-13T12:26:59;24.60;99.90
10788;DHT22;5446;50.826;4.380;2022-09-13T12:32:09;24.60;99.90
10788;DHT22;5446;50.826;4.380;2022-09-13T12:57:17;24.20;99.90
10788;DHT22;5446;50.826;4.380;2022-09-13T13:07:41;24.10;99.90
10788;DHT22;5446;50.826;4.380;2022-09-13T13:10:34;24.00;99.90
10788;DHT22;5446;50.826;4.380;2022-09-13T13:13:38;24.00;99.90
10788;DHT22;5446;50.826;4.380;2022-09-13T13:16:20;23.90;99.90
10788;DHT22;5446;50.826;4.380;2022-09-13T13:18:49;23.90;99.90
10788;DHT22;5446;50.826;4.380;2022-09-13T13:21:34;24.00;99.90
10788;DHT22;5446;50.826;4.380;2022-09-13T13:29:11;23.90;99.90
10788;DHT22;5446;50.826;4.380;2022-09-13T13:31:39;23.80;99.90
10788;DHT22;5446;50.826;4.380;2022-09-13T13:39:08;23.80;99.90
10788;DHT22;5446;50.826;4.380;2022-09-13T13:46:45;23.70;99.90
10788;DHT22;5446;50.826;4.380;2022-09-13T13:57:34;23.40;99.90
10788;DHT22;5446;50.826;4.380;2022-09-13T14:02:48;23.20;99.90
10788;DHT22;5446;50.826;4.380;2022-09-13T14:11:06;23.40;99.90
10788;DHT22;5446;50.826;4.380;2022-09-13T14:19:46;23.10;99.90
10788;DHT22;5446;50.826;4.380;2022-09-13T14:22:21;23.20;99.90
10788;DHT22;5446;50.826;4.380;2022-09-13T14:27:48;22.90;99.90
10788;DHT22;5446;50.826;4.380;2022-09-13T14:30:24;22.80;99.90
10788;DHT22;5446;50.826;4.380;2022-09-13T14:32:54;22.90;99.90
10788;DHT22;5446;50.826;4.380;2022-09-13T14:35:40;22.80;99.90
10788;DHT22;5446;50.826;4.380;2022-09-13T14:38:22;22.80;99.90
10788;DHT22;5446;50.826;4.380;2022-09-13T14:40:49;22.60;99.90
10788;DHT22;5446;50.826;4.380;2022-09-13T14:43:19;22.60;99.90
10788;DHT22;5446;50.826;4.380;2022-09-13T14:45:49;22.60;99.90
10788;DHT22;5446;50.826;4.380;2022-09-13T14:48:29;22.60;99.90
10788;DHT22;5446;50.826;4.380;2022-09-13T14:51:01;22.70;99.90
10788;DHT22;5446;50.826;4.380;2022-09-13T14:53:31;22.80;99.90
10788;DHT22;5446;50.826;4.380;2022-09-13T14:56:25;22.90;99.90
10788;DHT22;5446;50.826;4.380;2022-09-13T14:58:55;22.80;99.90
10788;DHT22;5446;50.826;4.380;2022-09-13T15:01:29;22.80;99.90
10788;DHT22;5446;50.826;4.380;2022-09-13T15:03:57;22.80;99.90
10788;DHT22;5446;50.826;4.380;2022-09-13T15:06:30;22.80;99.90
10788;DHT22;5446;50.826;4.380;2022-09-13T15:09:44;22.90;99.90
10788;DHT22;5446;50.826;4.380;2022-09-13T15:14:35;22.90;99.90
10788;DHT22;5446;50.826;4.380;2022-09-13T15:17:11;23.00;99.90
10788;DHT22;5446;50.826;4.380;2022-09-13T15:19:49;22.90;99.90
10788;DHT22;5446;50.826;4.380;2022-09-13T15:22:29;22.80;99.90
10788;DHT22;5446;50.826;4.380;2022-09-13T15:25:00;22.80;99.90
10788;DHT22;5446;50.826;4.380;2022-09-13T15:27:27;22.70;99.90
10788;DHT22;5446;50.826;4.380;2022-09-13T15:29:59;22.80;99.90
10788;DHT22;5446;50.826;4.380;2022-09-13T15:34:57;22.80;99.90
10788;DHT22;5446;50.826;4.380;2022-09-13T15:37:35;22.90;99.90
10788;DHT22;5446;50.826;4.380;2022-09-13T15:40:13;22.90;99.90
10788;DHT22;5446;50.826;4.380;2022-09-13T15:42:39;22.90;99.90
10788;DHT22;5446;50.826;4.380;2022-09-13T15:45:09;22.70;99.90
10788;DHT22;5446;50.826;4.380;2022-09-13T15:47:36;22.80;99.90
10788;DHT22;5446;50.826;4.380;2022-09-13T15:50:01;22.80;99.90
10788;DHT22;5446;50.826;4.380;2022-09-13T15:52:27;22.80;99.90
10788;DHT22;5446;50.826;4.380;2022-09-13T15:54:53;22.80;99.90
10788;DHT22;5446;50.826;4.380;2022-09-13T15:57:22;22.70;99.90
10788;DHT22;5446;50.826;4.380;2022-09-13T15:59:49;22.60;99.90
10788;DHT22;5446;50.826;4.380;2022-09-13T16:02:24;22.50;99.90
10788;DHT22;5446;50.826;4.380;2022-09-13T16:04:50;22.50;99.90
10788;DHT22;5446;50.826;4.380;2022-09-13T16:07:17;22.50;99.90
10788;DHT22;5446;50.826;4.380;2022-09-13T16:09:43;22.60;99.90
10788;DHT22;5446;50.826;4.380;2022-09-13T16:12:09;22.60;99.90
10788;DHT22;5446;50.826;4.380;2022-09-13T16:14:35;22.60;99.90
10788;DHT22;5446;50.826;4.380;2022-09-13T16:17:10;22.50;99.90
10788;DHT22;5446;50.826;4.380;2022-09-13T16:19:36;22.50;99.90
10788;DHT22;5446;50.826;4.380;2022-09-13T16:22:02;22.40;99.90
10788;DHT22;5446;50.826;4.380;2022-09-13T16:24:27;22.40;99.90
10788;DHT22;5446;50.826;4.380;2022-09-13T16:26:53;22.30;99.90
10788;DHT22;5446;50.826;4.380;2022-09-13T16:29:19;22.20;99.90
10788;DHT22;5446;50.826;4.380;2022-09-13T16:31:45;22.10;99.90
10788;DHT22;5446;50.826;4.380;2022-09-13T16:34:10;22.00;99.90
10788;DHT22;5446;50.826;4.380;2022-09-13T16:36:36;22.00;99.90
10788;DHT22;5446;50.826;4.380;2022-09-13T16:39:02;21.90;99.90
10788;DHT22;5446;50.826;4.380;2022-09-13T16:41:28;21.70;99.90
10788;DHT22;5446;50.826;4.380;2022-09-13T16:43:54;21.60;99.90
10788;DHT22;5446;50.826;4.380;2022-09-13T16:46:29;21.50;99.90
10788;DHT22;5446;50.826;4.380;2022-09-13T16:48:55;21.30;99.90
10788;DHT22;5446;50.826;4.380;2022-09-13T16:51:22;21.20;99.90
10788;DHT22;5446;50.826;4.380;2022-09-13T16:53:49;21.20;99.90
10788;DHT22;5446;50.826;4.380;2022-09-13T16:56:17;21.20;99.90
10788;DHT22;5446;50.826;4.380;2022-09-13T16:58:45;21.10;99.90
10788;DHT22;5446;50.826;4.380;2022-09-13T17:01:20;21.00;99.90
10788;DHT22;5446;50.826;4.380;2022-09-13T17:03:45;20.80;99.90
10788;DHT22;5446;50.826;4.380;2022-09-13T17:06:13;20.80;99.90
10788;DHT22;5446;50.826;4.380;2022-09-13T17:08:44;20.60;99.90
10788;DHT22;5446;50.826;4.380;2022-09-13T17:11:12;20.50;99.90
10788;DHT22;5446;50.826;4.380;2022-09-13T17:13:39;20.40;99.90
10788;DHT22;5446;50.826;4.380;2022-09-13T17:16:15;20.40;99.90
10788;DHT22;5446;50.826;4.380;2022-09-13T17:18:42;20.30;99.90
10788;DHT22;5446;50.826;4.380;2022-09-13T17:21:07;20.20;99.90
10788;DHT22;5446;50.826;4.380;2022-09-13T17:23:33;20.20;99.90
10788;DHT22;5446;50.826;4.380;2022-09-13T17:25:59;20.10;99.90
10788;DHT22;5446;50.826;4.380;2022-09-13T17:28:24;20.10;99.90
10788;DHT22;5446;50.826;4.380;2022-09-13T17:30:50;20.20;99.90
10788;DHT22;5446;50.826;4.380;2022-09-13T17:33:16;20.20;99.90
10788;DHT22;5446;50.826;4.380;2022-09-13T17:35:42;20.20;99.90
10788;DHT22;5446;50.826;4.380;2022-09-13T17:38:08;20.20;99.90
10788;DHT22;5446;50.826;4.380;2022-09-13T17:40:34;20.10;99.90
10788;DHT22;5446;50.826;4.380;2022-09-13T17:42:59;20.00;99.90
10788;DHT22;5446;50.826;4.380;2022-09-13T17:45:26;19.90;99.90
10788;DHT22;5446;50.826;4.380;2022-09-13T17:47:53;19.90;99.90
10788;DHT22;5446;50.826;4.380;2022-09-13T17:50:19;19.90;99.90
10788;DHT22;5446;50.826;4.380;2022-09-13T17:52:45;19.90;99.90
10788;DHT22;5446;50.826;4.380;2022-09-13T17:55:11;19.90;99.90
10788;DHT22;5446;50.826;4.380;2022-09-13T17:57:37;19.90;99.90
10788;DHT22;5446;50.826;4.380;2022-09-13T18:00:04;20.00;99.90
10788;DHT22;5446;50.826;4.380;2022-09-13T18:02:33;19.90;99.90
10788;DHT22;5446;50.826;4.380;2022-09-13T18:04:58;19.90;99.90
10788;DHT22;5446;50.826;4.380;2022-09-13T18:07:24;19.90;99.90
10788;DHT22;5446;50.826;4.380;2022-09-13T18:09:50;19.90;99.90
10788;DHT22;5446;50.826;4.380;2022-09-13T18:12:15;19.90;99.90
10788;DHT22;5446;50.826;4.380;2022-09-13T18:18:03;19.90;99.90
10788;DHT22;5446;50.826;4.380;2022-09-13T18:20:29;19.90;99.90
10788;DHT22;5446;50.826;4.380;2022-09-13T18:22:56;19.90;99.90
10788;DHT22;5446;50.826;4.380;2022-09-13T18:25:21;19.80;99.90
10788;DHT22;5446;50.826;4.380;2022-09-13T18:27:48;19.80;99.90
10788;DHT22;5446;50.826;4.380;2022-09-13T18:30:15;19.90;99.90
10788;DHT22;5446;50.826;4.380;2022-09-13T18:32:40;19.90;99.90
10788;DHT22;5446;50.826;4.380;2022-09-13T18:35:06;19.80;99.90
10788;DHT22;5446;50.826;4.380;2022-09-13T18:37:32;19.80;99.90
10788;DHT22;5446;50.826;4.380;2022-09-13T18:39:59;19.80;99.90
10788;DHT22;5446;50.826;4.380;2022-09-13T18:42:25;19.90;99.90
10788;DHT22;5446;50.826;4.380;2022-09-13T18:44:50;19.80;99.90
10788;DHT22;5446;50.826;4.380;2022-09-13T18:47:17;19.80;99.90
10788;DHT22;5446;50.826;4.380;2022-09-13T18:49:43;19.70;99.90
10788;DHT22;5446;50.826;4.380;2022-09-13T18:52:09;19.80;99.90
10788;DHT22;5446;50.826;4.380;2022-09-13T18:54:36;19.80;99.90
10788;DHT22;5446;50.826;4.380;2022-09-13T18:57:02;19.80;99.90
10788;DHT22;5446;50.826;4.380;2022-09-13T18:59:28;19.70;99.90
10788;DHT22;5446;50.826;4.380;2022-09-13T19:01:56;19.60;99.90
10788;DHT22;5446;50.826;4.380;2022-09-13T19:04:22;19.50;99.90
10788;DHT22;5446;50.826;4.380;2022-09-13T19:06:52;19.50;99.90
10788;DHT22;5446;50.826;4.380;2022-09-13T19:09:20;19.40;99.90
10788;DHT22;5446;50.826;4.380;2022-09-13T19:11:50;19.40;99.90
10788;DHT22;5446;50.826;4.380;2022-09-13T19:14:21;19.40;99.90
10788;DHT22;5446;50.826;4.380;2022-09-13T19:16:48;19.40;99.90
10788;DHT22;5446;50.826;4.380;2022-09-13T19:19:15;19.50;99.90
10788;DHT22;5446;50.826;4.380;2022-09-13T19:21:42;19.50;99.90
10788;DHT22;5446;50.826;4.380;2022-09-13T19:24:09;19.40;99.90
10788;DHT22;5446;50.826;4.380;2022-09-13T19:26:40;19.40;99.90
10788;DHT22;5446;50.826;4.380;2022-09-13T19:29:09;19.40;99.90